Time;durP1;ratioP1;P1;durP2;ratioP2;P2;SDS_P1;SDS_P2;PMS_P1;PMS_P2;Temp;Humidity;BMP_temperature;BMP_pressure;BME280_temperature;BME280_humidity;BME280_pressure;Samples;Min_cycle;Max_cycle;Signal;HPM_P1;HPM_P2
2021/08/16 00:00:46;;;;;;;33.72;6.90;;;16.50;99.90;;;;;;4998855;28;20053;-80
2021/08/16 00:03:13;;;;;;;32.80;6.50;;;16.50;99.90;;;;;;4985965;28;20058;-81
2021/08/16 00:05:43;;;;;;;34.60;6.35;;;16.60;99.90;;;;;;4995013;28;20389;-83
2021/08/16 00:08:10;;;;;;;36.78;6.82;;;16.60;99.90;;;;;;4986870;28;20134;-82
2021/08/16 00:10:38;;;;;;;45.20;7.05;;;16.60;99.90;;;;;;5003321;28;20048;-81
2021/08/16 00:13:05;;;;;;;38.95;6.68;;;16.60;99.90;;;;;;4999535;28;20476;-77
2021/08/16 00:15:34;;;;;;;28.58;6.47;;;16.60;99.90;;;;;;4996381;28;20469;-82
2021/08/16 00:18:03;;;;;;;32.50;6.55;;;16.60;99.90;;;;;;4994648;28;20137;-81
2021/08/16 00:20:30;;;;;;;41.40;6.97;;;16.60;99.90;;;;;;4979315;28;20038;-82
2021/08/16 00:22:57;;;;;;;40.42;7.78;;;16.60;99.90;;;;;;5003792;28;20054;-82
2021/08/16 00:25:28;;;;;;;36.83;6.68;;;16.60;99.90;;;;;;4994358;28;20050;-82
2021/08/16 00:27:54;;;;;;;39.53;6.85;;;16.50;99.90;;;;;;5007075;28;20096;-82
2021/08/16 00:30:22;;;;;;;38.45;8.43;;;16.60;99.90;;;;;;4997736;28;20072;-80
2021/08/16 00:32:50;;;;;;;37.10;7.20;;;16.60;99.90;;;;;;4998487;28;20050;-82
2021/08/16 00:35:17;;;;;;;39.92;6.00;;;16.60;99.90;;;;;;4998685;28;20046;-81
2021/08/16 00:37:46;;;;;;;47.20;7.35;;;16.60;99.90;;;;;;4986377;28;20050;-79
2021/08/16 00:40:15;;;;;;;36.08;6.22;;;16.60;99.90;;;;;;4986416;28;20074;-79
2021/08/16 00:42:43;;;;;;;33.63;6.32;;;16.60;99.90;;;;;;4996183;28;20513;-81
2021/08/16 00:45:11;;;;;;;31.88;6.22;;;16.60;99.90;;;;;;4993574;28;20046;-82
2021/08/16 00:47:39;;;;;;;33.83;6.47;;;16.60;99.90;;;;;;4985347;28;20054;-79
2021/08/16 00:50:07;;;;;;;32.00;6.07;;;16.60;99.90;;;;;;4993801;28;20480;-80
2021/08/16 00:52:35;;;;;;;;;;;16.60;99.90;;;;;;5010133;28;20396;-80
2021/08/16 00:55:04;;;;;;;39.95;6.70;;;16.60;99.90;;;;;;4995658;28;19921;-81
2021/08/16 00:57:32;;;;;;;34.60;6.75;;;16.60;99.90;;;;;;5007684;28;20056;-82
2021/08/16 01:00:02;;;;;;;36.13;6.88;;;16.50;99.90;;;;;;5005116;28;20050;-81
2021/08/16 01:02:33;;;;;;;31.45;6.20;;;16.60;99.90;;;;;;5004694;28;20053;-81
2021/08/16 01:05:05;;;;;;;34.75;6.10;;;16.60;99.90;;;;;;5005810;28;20441;-81
2021/08/16 01:07:34;;;;;;;37.13;6.07;;;16.60;99.90;;;;;;4994593;28;20046;-82
2021/08/16 01:10:02;;;;;;;28.83;6.10;;;16.60;99.90;;;;;;4995751;28;20058;-80
2021/08/16 01:12:33;;;;;;;;;;;16.60;99.90;;;;;;5026617;28;20048;-79
2021/08/16 01:15:03;;;;;;;24.65;6.47;;;16.60;99.90;;;;;;5006124;28;19921;-81
2021/08/16 01:17:31;;;;;;;27.85;5.20;;;16.50;99.90;;;;;;5004394;28;20107;-81
2021/08/16 01:19:58;;;;;;;23.83;5.20;;;16.50;99.90;;;;;;5005832;28;20054;-82
2021/08/16 01:22:25;;;;;;;37.85;6.13;;;16.50;99.90;;;;;;5000176;28;20487;-81
2021/08/16 01:24:55;;;;;;;29.05;5.70;;;16.50;99.90;;;;;;5006511;28;20045;-83
2021/08/16 01:27:22;;;;;;;29.55;5.47;;;16.50;99.90;;;;;;5005207;28;20054;-81
2021/08/16 01:29:51;;;;;;;;;;;16.50;99.90;;;;;;5005276;28;20109;-82
2021/08/16 01:32:18;;;;;;;34.70;5.47;;;16.50;99.90;;;;;;4988024;28;19922;-82
2021/08/16 01:34:45;;;;;;;26.95;6.18;;;16.50;99.90;;;;;;4997240;28;20046;-82
2021/08/16 01:37:13;;;;;;;25.23;5.68;;;16.50;99.90;;;;;;4989135;28;20469;-82
2021/08/16 01:39:40;;;;;;;28.52;5.60;;;16.50;99.90;;;;;;4991351;28;20053;-82
2021/08/16 01:42:10;;;;;;;28.27;6.45;;;16.50;99.90;;;;;;4996314;28;20038;-81
2021/08/16 01:44:37;;;;;;;23.45;5.28;;;16.50;99.90;;;;;;5004758;28;20045;-82
2021/08/16 01:47:04;;;;;;;31.77;5.90;;;16.50;99.90;;;;;;4997172;28;20046;-81
2021/08/16 01:49:31;;;;;;;31.63;5.53;;;16.50;99.90;;;;;;4997630;28;20503;-79
2021/08/16 01:52:07;;;;;;;30.33;6.10;;;16.50;99.90;;;;;;4994719;28;20057;-81
2021/08/16 01:54:36;;;;;;;37.80;5.75;;;16.60;99.90;;;;;;5007896;28;20053;-82
2021/08/16 01:57:03;;;;;;;19.63;5.57;;;16.60;99.90;;;;;;5008629;28;20048;-81
2021/08/16 01:59:30;;;;;;;25.52;5.97;;;16.60;99.90;;;;;;5008560;28;20467;-82
2021/08/16 02:01:57;;;;;;;25.95;5.00;;;16.60;99.90;;;;;;5013099;28;20054;-82
2021/08/16 02:04:24;;;;;;;31.88;5.47;;;16.60;99.90;;;;;;4996839;28;20140;-82
2021/08/16 02:06:51;;;;;;;24.85;5.40;;;16.60;99.90;;;;;;5009391;28;20484;-80
2021/08/16 02:09:18;;;;;;;25.20;5.72;;;16.60;99.90;;;;;;5008816;28;20053;-79
2021/08/16 02:11:47;;;;;;;25.85;5.38;;;16.50;99.90;;;;;;5012323;28;20045;-80
2021/08/16 02:14:14;;;;;;;19.10;5.30;;;16.60;99.90;;;;;;5011610;28;20042;-80
2021/08/16 02:16:40;;;;;;;26.05;5.22;;;16.60;99.90;;;;;;5017172;28;20490;-81
2021/08/16 02:19:10;;;;;;;23.80;5.47;;;16.60;99.90;;;;;;5000450;28;20045;-82
2021/08/16 02:21:38;;;;;;;17.08;4.55;;;16.60;99.90;;;;;;5004651;28;20050;-81
2021/08/16 02:24:05;;;;;;;16.35;4.25;;;16.60;99.90;;;;;;5004691;28;20046;-78
2021/08/16 02:26:32;;;;;;;20.05;4.32;;;16.60;99.90;;;;;;5005714;28;20484;-81
2021/08/16 02:29:01;;;;;;;16.95;4.38;;;16.50;99.90;;;;;;5002713;28;20041;-82
2021/08/16 02:31:28;;;;;;;18.70;4.80;;;16.50;99.90;;;;;;5016095;28;20053;-81
2021/08/16 02:33:55;;;;;;;19.00;4.55;;;16.50;99.90;;;;;;5013176;28;20388;-81
2021/08/16 02:36:22;;;;;;;14.40;4.40;;;16.50;99.90;;;;;;5004754;28;20061;-79
2021/08/16 02:38:49;;;;;;;18.60;4.22;;;16.50;99.90;;;;;;5007591;28;20650;-82
2021/08/16 02:41:16;;;;;;;16.90;4.45;;;16.50;99.90;;;;;;5011608;28;20432;-81
2021/08/16 02:43:43;;;;;;;12.35;3.60;;;16.50;99.90;;;;;;5014917;28;20042;-79
2021/08/16 02:46:10;;;;;;;13.40;4.00;;;16.40;99.90;;;;;;5013114;28;20052;-80
2021/08/16 02:48:37;;;;;;;17.85;4.30;;;16.50;99.90;;;;;;5004373;28;20058;-79
2021/08/16 02:51:04;;;;;;;11.18;4.07;;;16.50;99.90;;;;;;5004296;28;20046;-78
2021/08/16 02:53:32;;;;;;;12.25;3.90;;;16.50;99.90;;;;;;5005164;28;20050;-81
2021/08/16 02:55:59;;;;;;;18.63;3.67;;;16.40;99.90;;;;;;4999232;28;20054;-81
2021/08/16 02:58:26;;;;;;;11.05;3.70;;;16.30;99.90;;;;;;5015308;28;20054;-82
2021/08/16 03:00:53;;;;;;;12.52;3.70;;;16.30;99.90;;;;;;4997685;28;20050;-79
2021/08/16 03:03:20;;;;;;;12.27;4.05;;;16.30;99.90;;;;;;4998781;28;20110;-81
2021/08/16 03:05:47;;;;;;;12.77;3.53;;;16.30;99.90;;;;;;4989087;28;20065;-82
2021/08/16 03:08:14;;;;;;;10.82;3.35;;;16.20;99.90;;;;;;5011830;28;20037;-82
2021/08/16 03:10:41;;;;;;;9.85;3.85;;;16.30;99.90;;;;;;5016247;28;20038;-81
2021/08/16 03:13:08;;;;;;;11.75;3.60;;;16.20;99.90;;;;;;4999809;28;20065;-82
2021/08/16 03:15:35;;;;;;;12.45;3.80;;;16.20;99.90;;;;;;5004180;28;20129;-81
2021/08/16 03:18:03;;;;;;;8.75;2.97;;;16.20;99.90;;;;;;5004683;28;20046;-82
2021/08/16 03:20:30;;;;;;;12.25;3.35;;;16.10;99.90;;;;;;4997883;28;20468;-80
2021/08/16 03:22:57;;;;;;;8.52;3.17;;;16.10;99.90;;;;;;5011181;28;20050;-82
2021/08/16 03:25:24;;;;;;;9.65;2.90;;;16.20;99.90;;;;;;5014518;28;20163;-81
2021/08/16 03:27:51;;;;;;;8.90;3.30;;;16.10;99.90;;;;;;4991892;28;20122;-82
2021/08/16 03:30:19;;;;;;;6.95;3.10;;;16.10;99.90;;;;;;5006452;28;20037;-80
2021/08/16 03:32:48;;;;;;;11.75;3.30;;;16.10;99.90;;;;;;5011376;28;20041;-82
2021/08/16 03:35:16;;;;;;;9.80;3.70;;;16.10;99.90;;;;;;5010328;28;20053;-80
2021/08/16 03:37:45;;;;;;;8.20;3.47;;;16.10;99.90;;;;;;5013911;28;20063;-79
2021/08/16 03:40:14;;;;;;;10.60;3.63;;;16.00;99.90;;;;;;5012372;28;20041;-81
2021/08/16 03:42:41;;;;;;;10.93;3.55;;;16.00;99.90;;;;;;4996255;28;20041;-79
2021/08/16 03:45:16;;;;;;;9.13;3.55;;;16.00;99.90;;;;;;5007003;28;20124;-81
2021/08/16 03:47:44;;;;;;;9.35;3.63;;;16.00;99.90;;;;;;5010919;28;20439;-81
2021/08/16 03:50:11;;;;;;;8.80;4.43;;;15.90;99.90;;;;;;5010144;28;20130;-81
2021/08/16 03:52:39;;;;;;;11.48;4.32;;;15.90;99.90;;;;;;5014147;28;20044;-82
2021/08/16 03:55:06;;;;;;;13.02;4.78;;;15.90;99.90;;;;;;5012037;28;20046;-82
2021/08/16 03:57:33;;;;;;;11.95;4.13;;;15.90;99.90;;;;;;5009910;28;20400;-82
2021/08/16 04:00:00;;;;;;;12.50;4.25;;;15.90;99.90;;;;;;5011003;28;20055;-81
2021/08/16 04:02:27;;;;;;;10.77;4.15;;;15.90;99.90;;;;;;5009489;28;20045;-81
2021/08/16 04:04:55;;;;;;;12.13;3.80;;;15.90;99.90;;;;;;5015233;28;20046;-81
2021/08/16 04:07:22;;;;;;;12.52;3.90;;;15.80;99.90;;;;;;4998807;28;20054;-81
2021/08/16 04:09:49;;;;;;;14.70;4.43;;;15.80;99.90;;;;;;4996992;28;20495;-82
2021/08/16 04:12:16;;;;;;;11.05;4.13;;;15.80;99.90;;;;;;5006926;28;20076;-82
2021/08/16 04:14:43;;;;;;;9.18;3.45;;;15.80;99.90;;;;;;5010660;28;20423;-80
2021/08/16 04:17:10;;;;;;;10.68;3.70;;;15.70;99.90;;;;;;5009953;28;20046;-82
2021/08/16 04:19:39;;;;;;;11.32;4.65;;;15.70;99.90;;;;;;5014790;28;20045;-82
2021/08/16 04:22:06;;;;;;;11.32;3.60;;;15.70;99.90;;;;;;4998426;28;20042;-81
2021/08/16 04:24:33;;;;;;;11.00;3.35;;;15.70;99.90;;;;;;5007201;28;20367;-81
2021/08/16 04:27:00;;;;;;;14.13;3.90;;;15.60;99.90;;;;;;5010330;28;20045;-81
2021/08/16 04:29:27;;;;;;;10.07;3.78;;;15.60;99.90;;;;;;5009214;28;20047;-79
2021/08/16 04:31:56;;;;;;;15.02;3.83;;;15.60;99.90;;;;;;5011099;28;20057;-81
2021/08/16 04:34:24;;;;;;;9.27;3.78;;;15.60;99.90;;;;;;5013127;28;20132;-79
2021/08/16 04:36:51;;;;;;;9.05;3.85;;;15.60;99.90;;;;;;4996419;28;20046;-81
2021/08/16 04:39:18;;;;;;;12.40;4.57;;;15.60;99.90;;;;;;4997970;28;20050;-80
2021/08/16 04:41:50;;;;;;;12.43;4.03;;;15.60;99.90;;;;;;5005591;28;20476;-81
2021/08/16 04:44:17;;;;;;;13.30;4.30;;;15.60;99.90;;;;;;5008194;28;20380;-82
2021/08/16 04:46:44;;;;;;;11.85;4.63;;;15.60;99.90;;;;;;5014715;28;20045;-81
2021/08/16 04:49:11;;;;;;;18.17;5.60;;;15.60;99.90;;;;;;4997975;28;20385;-81
2021/08/16 04:51:41;;;;;;;17.52;4.68;;;15.50;99.90;;;;;;4997524;28;20046;-81
2021/08/16 04:54:08;;;;;;;14.07;4.03;;;15.50;99.90;;;;;;5005383;28;20046;-81
2021/08/16 04:56:36;;;;;;;14.93;4.25;;;15.50;99.90;;;;;;5006245;28;20401;-81
2021/08/16 04:59:03;;;;;;;13.90;3.92;;;15.50;99.90;;;;;;5009598;28;20037;-82
2021/08/16 05:01:32;;;;;;;16.20;4.35;;;15.50;99.90;;;;;;4992841;28;20447;-81
2021/08/16 05:03:59;;;;;;;12.93;3.95;;;15.60;99.90;;;;;;5014780;28;20057;-81
2021/08/16 05:06:30;;;;;;;19.45;4.53;;;15.60;99.90;;;;;;5009249;28;20052;-82
2021/08/16 05:08:57;;;;;;;16.38;4.28;;;15.60;99.90;;;;;;5009697;28;20053;-79
2021/08/16 05:11:24;;;;;;;17.27;4.22;;;15.60;99.90;;;;;;5012931;28;20052;-81
2021/08/16 05:13:51;;;;;;;9.80;4.78;;;15.60;99.90;;;;;;5014088;28;20048;-80
2021/08/16 05:16:19;;;;;;;20.52;5.20;;;15.60;99.90;;;;;;4997242;28;20050;-81
2021/08/16 05:18:46;;;;;;;22.55;5.53;;;15.60;99.90;;;;;;4996489;28;20050;-82
2021/08/16 05:21:13;;;;;;;12.00;4.60;;;15.60;99.90;;;;;;5005452;28;20042;-81
2021/08/16 05:23:40;;;;;;;14.45;4.68;;;15.60;99.90;;;;;;5008852;28;20052;-80
2021/08/16 05:26:07;;;;;;;17.63;5.15;;;15.60;99.90;;;;;;5008055;28;20038;-80
2021/08/16 05:28:34;;;;;;;14.95;5.28;;;15.60;99.90;;;;;;5013190;28;20053;-81
2021/08/16 05:31:02;;;;;;;11.23;5.20;;;15.60;99.90;;;;;;5006982;28;20494;-81
2021/08/16 05:33:29;;;;;;;14.93;5.13;;;15.60;99.90;;;;;;5001630;28;20058;-81
2021/08/16 05:35:56;;;;;;;15.63;4.55;;;15.60;99.90;;;;;;4994663;28;20425;-81
2021/08/16 05:38:23;;;;;;;13.70;4.70;;;15.60;99.90;;;;;;5001431;28;20052;-82
2021/08/16 05:40:50;;;;;;;18.10;5.07;;;15.70;99.90;;;;;;5001025;28;20048;-79
2021/08/16 05:43:17;;;;;;;12.27;4.57;;;15.70;99.90;;;;;;4997377;28;20050;-82
2021/08/16 05:45:44;;;;;;;18.05;4.55;;;15.70;99.90;;;;;;5006017;28;20049;-81
2021/08/16 05:48:11;;;;;;;18.60;4.50;;;15.70;99.90;;;;;;5012530;28;20499;-82
2021/08/16 05:50:38;;;;;;;12.35;4.63;;;15.70;99.90;;;;;;5012798;28;20048;-80
2021/08/16 05:53:09;;;;;;;13.10;4.18;;;15.70;99.90;;;;;;5012521;28;20361;-79
2021/08/16 05:55:36;;;;;;;15.88;4.43;;;15.80;99.90;;;;;;5017720;28;20131;-81
2021/08/16 05:58:03;;;;;;;19.70;4.60;;;15.80;99.90;;;;;;5001814;28;20104;-81
2021/08/16 06:00:30;;;;;;;14.75;4.10;;;15.80;99.90;;;;;;5032873;28;20480;-81
2021/08/16 06:02:57;;;;;;;10.93;4.10;;;15.80;99.90;;;;;;5013019;28;20404;-82
2021/08/16 06:05:25;;;;;;;14.80;4.57;;;15.90;99.90;;;;;;5011745;28;20070;-82
2021/08/16 06:07:52;;;;;;;15.52;4.45;;;15.90;99.90;;;;;;5016505;28;20058;-81
2021/08/16 06:10:20;;;;;;;16.30;4.50;;;15.90;99.90;;;;;;5000847;28;20054;-82
2021/08/16 06:12:47;;;;;;;15.40;4.18;;;15.90;99.90;;;;;;4999494;28;20141;-82
2021/08/16 06:15:14;;;;;;;12.68;3.90;;;16.00;99.90;;;;;;5007536;28;20046;-82
2021/08/16 06:17:41;;;;;;;19.30;4.45;;;16.00;99.90;;;;;;5008326;28;20042;-82
2021/08/16 06:20:10;;;;;;;7.65;3.22;;;15.90;99.90;;;;;;5010346;28;20049;-82
2021/08/16 06:22:39;;;;;;;12.63;3.65;;;15.90;99.90;;;;;;5015751;28;20062;-80
2021/08/16 06:25:15;;;;;;;13.88;3.90;;;16.00;99.90;;;;;;5013004;28;20128;-81
2021/08/16 06:27:42;;;;;;;14.55;3.72;;;16.00;99.90;;;;;;4999781;28;20049;-82
2021/08/16 06:30:10;;;;;;;12.90;3.40;;;16.00;99.90;;;;;;5002272;28;20054;-82
2021/08/16 06:32:37;;;;;;;15.60;3.67;;;16.00;99.90;;;;;;5019008;28;20076;-80
2021/08/16 06:35:05;;;;;;;16.67;3.80;;;16.10;99.90;;;;;;5011909;28;20042;-78
2021/08/16 06:37:32;;;;;;;10.50;3.28;;;16.10;99.90;;;;;;5016927;28;20049;-80
2021/08/16 06:40:00;;;;;;;7.93;2.80;;;16.10;99.90;;;;;;5001540;28;20444;-83
2021/08/16 06:42:34;;;;;;;13.65;3.85;;;16.10;99.90;;;;;;5005081;28;20056;-82
2021/08/16 06:45:01;;;;;;;14.68;3.47;;;16.20;99.90;;;;;;5004896;28;20136;-82
2021/08/16 06:47:29;;;;;;;14.85;3.65;;;16.20;99.90;;;;;;5004447;28;20057;-80
2021/08/16 06:49:56;;;;;;;13.05;3.90;;;16.30;99.90;;;;;;5003709;28;20056;-81
2021/08/16 06:52:23;;;;;;;17.90;3.78;;;16.40;99.90;;;;;;4999886;28;20056;-80
2021/08/16 06:54:50;;;;;;;12.50;3.45;;;16.40;99.90;;;;;;5012116;28;20128;-79
2021/08/16 06:57:27;;;;;;;12.82;3.80;;;16.40;99.90;;;;;;5004054;28;20049;-82
2021/08/16 06:59:54;;;;;;;12.70;3.40;;;16.50;99.90;;;;;;5011734;28;20056;-82
2021/08/16 07:02:21;;;;;;;10.50;3.78;;;16.50;99.90;;;;;;5010866;28;20054;-82
2021/08/16 07:04:53;;;;;;;9.38;3.60;;;16.50;99.90;;;;;;5007853;28;20119;-81
2021/08/16 07:07:22;;;;;;;11.27;3.40;;;16.70;99.90;;;;;;4999895;28;20046;-82
2021/08/16 07:09:50;;;;;;;12.82;3.28;;;16.70;99.90;;;;;;5004871;28;20041;-82
2021/08/16 07:12:18;;;;;;;14.07;3.55;;;16.70;99.90;;;;;;5010442;28;20045;-82
2021/08/16 07:14:47;;;;;;;9.70;3.45;;;16.80;99.90;;;;;;5011137;28;20049;-81
2021/08/16 07:17:15;;;;;;;10.52;3.35;;;16.80;99.90;;;;;;5010866;28;20507;-82
2021/08/16 07:19:45;;;;;;;6.03;3.00;;;16.90;99.90;;;;;;5002914;28;20053;-80
2021/08/16 07:22:14;;;;;;;9.48;3.20;;;16.90;99.90;;;;;;5004487;28;20045;-82
2021/08/16 07:24:44;;;;;;;11.23;3.30;;;17.00;99.90;;;;;;4992146;28;20361;-82
2021/08/16 07:27:11;;;;;;;10.48;3.15;;;17.10;99.90;;;;;;5000388;28;20113;-81
2021/08/16 07:29:44;;;;;;;12.07;3.72;;;17.20;99.90;;;;;;5006061;28;20060;-82
2021/08/16 07:32:18;;;;;;;12.77;3.13;;;17.20;99.90;;;;;;5000691;28;20038;-82
2021/08/16 07:34:57;;;;;;;9.55;2.83;;;17.30;99.90;;;;;;5015786;28;20049;-80
2021/08/16 07:37:29;;;;;;;7.70;2.90;;;17.20;99.90;;;;;;5006886;28;20057;-82
2021/08/16 07:39:58;;;;;;;8.77;3.10;;;17.20;99.90;;;;;;5001441;28;20049;-82
2021/08/16 07:42:26;;;;;;;8.50;2.90;;;17.20;99.90;;;;;;5000012;28;20049;-81
2021/08/16 07:44:54;;;;;;;8.68;2.70;;;17.30;99.90;;;;;;5010626;28;20054;-82
2021/08/16 07:47:22;;;;;;;8.52;2.78;;;17.30;99.90;;;;;;4993970;28;20049;-81
2021/08/16 07:50:00;;;;;;;7.38;2.90;;;17.40;99.90;;;;;;5000523;28;20053;-81
2021/08/16 07:52:27;;;;;;;10.00;2.90;;;17.50;99.90;;;;;;4980324;28;20046;-83
2021/08/16 07:54:57;;;;;;;9.00;3.40;;;17.50;99.90;;;;;;5001839;28;20133;-82
2021/08/16 07:57:27;;;;;;;9.25;2.70;;;17.60;99.90;;;;;;4994101;28;20045;-82
2021/08/16 07:59:56;;;;;;;9.05;3.40;;;17.70;99.90;;;;;;5005976;28;20045;-80
2021/08/16 08:02:28;;;;;;;10.88;3.20;;;17.70;99.90;;;;;;5004988;28;20488;-81
2021/08/16 08:04:56;;;;;;;10.38;3.10;;;17.70;99.90;;;;;;5014976;28;20049;-78
2021/08/16 08:07:23;;;;;;;10.48;3.15;;;17.60;99.90;;;;;;4997380;28;20053;-82
2021/08/16 08:09:52;;;;;;;11.68;3.60;;;17.60;99.90;;;;;;4996652;28;20500;-81
2021/08/16 08:12:23;;;;;;;10.23;3.20;;;17.60;99.90;;;;;;5007636;28;20229;-81
2021/08/16 08:14:52;;;;;;;7.28;2.63;;;17.70;99.90;;;;;;5009897;28;20045;-81
2021/08/16 08:17:29;;;;;;;10.15;2.53;;;17.90;99.90;;;;;;4998044;28;20184;-82
2021/08/16 08:20:06;;;;;;;10.30;2.30;;;18.00;99.90;;;;;;5016230;28;20042;-82
2021/08/16 08:22:37;;;;;;;8.75;2.55;;;18.20;99.90;;;;;;4989857;28;20045;-83
2021/08/16 08:25:10;;;;;;;9.68;2.70;;;18.30;99.90;;;;;;4982400;28;20053;-81
2021/08/16 08:27:37;;;;;;;10.20;2.85;;;18.40;99.90;;;;;;5009711;28;20045;-81
2021/08/16 08:30:13;;;;;;;6.65;2.63;;;18.40;99.90;;;;;;5009614;28;20136;-79
2021/08/16 08:32:50;;;;;;;6.85;2.30;;;18.40;99.90;;;;;;5009269;28;20105;-83
2021/08/16 08:35:19;;;;;;;8.82;2.40;;;18.40;99.90;;;;;;4998002;28;20452;-82
2021/08/16 08:37:59;;;;;;;9.18;2.72;;;18.30;99.90;;;;;;5013840;28;20403;-82
2021/08/16 08:40:38;;;;;;;18.60;3.05;;;18.30;99.90;;;;;;4997730;28;20472;-83
2021/08/16 08:43:31;;;;;;;7.13;2.20;;;18.30;99.90;;;;;;4978206;28;20053;-82
2021/08/16 08:46:28;;;;;;;7.00;2.08;;;18.40;99.90;;;;;;5000966;28;20045;-82
2021/08/16 08:49:04;;;;;;;6.18;2.03;;;18.40;99.90;;;;;;4995882;28;20045;-82
2021/08/16 08:51:32;;;;;;;6.20;2.08;;;18.50;99.90;;;;;;5002873;28;20037;-82
2021/08/16 08:54:12;;;;;;;5.93;2.05;;;18.50;99.90;;;;;;4988452;28;20104;-83
2021/08/16 08:56:59;;;;;;;5.07;1.83;;;18.40;99.90;;;;;;4991657;28;20041;-81
2021/08/16 08:59:31;;;;;;;5.40;1.98;;;18.40;99.90;;;;;;5001993;28;20042;-82
2021/08/16 09:02:04;;;;;;;7.65;2.15;;;18.40;99.90;;;;;;4995715;28;20042;-80
2021/08/16 09:04:35;;;;;;;7.75;1.90;;;18.50;99.90;;;;;;4997421;28;20045;-82
2021/08/16 09:07:04;;;;;;;5.68;1.67;;;18.60;99.90;;;;;;4986797;28;20050;-82
2021/08/16 09:09:53;;;;;;;8.02;2.40;;;18.70;99.90;;;;;;4997239;28;20045;-82
2021/08/16 09:12:32;;;;;;;5.70;1.70;;;18.70;99.90;;;;;;4975660;28;20498;-82
2021/08/16 09:15:00;;;;;;;5.82;1.90;;;18.80;99.90;;;;;;5013515;28;20137;-82
2021/08/16 09:17:45;;;;;;;6.13;2.35;;;18.80;99.90;;;;;;4999626;28;20041;-82
2021/08/16 09:20:30;;;;;;;7.93;2.17;;;19.00;99.90;;;;;;4965940;28;20037;-81
2021/08/16 09:23:28;;;;;;;;;;;;;;;;;;;;;
2021/08/16 09:26:43;;;;;;;4.65;1.67;;;19.00;99.90;;;;;;4994529;28;20123;-80
2021/08/16 09:29:33;;;;;;;5.63;1.50;;;19.00;99.90;;;;;;4988806;28;20092;-82
2021/08/16 09:32:53;;;;;;;6.05;1.90;;;18.90;99.90;;;;;;4973612;28;20092;-83
2021/08/16 09:35:38;;;;;;;;;;;;;;;;;;;;;
2021/08/16 09:39:14;;;;;;;7.38;2.20;;;19.00;99.90;;;;;;4919684;28;20455;-80
2021/08/16 09:45:33;;;;;;;9.00;2.17;;;19.10;99.90;;;;;;4864738;29;20045;-80
2021/08/16 09:48:33;;;;;;;5.03;1.80;;;19.20;99.90;;;;;;4857645;29;20045;-82
2021/08/16 09:51:06;;;;;;;6.20;1.73;;;19.30;99.90;;;;;;4905676;28;20047;-81
2021/08/16 09:53:50;;;;;;;;;;;;;;;;;;;;;
2021/08/16 09:56:41;;;;;;;;;;;;;;;;;;;;;
2021/08/16 09:59:33;;;;;;;4.97;1.80;;;19.20;99.90;;;;;;4977586;28;20064;-82
2021/08/16 10:02:13;;;;;;;5.38;2.05;;;19.30;99.90;;;;;;4967055;28;20046;-82
2021/08/16 10:04:47;;;;;;;4.88;1.58;;;19.30;99.90;;;;;;4946473;28;20112;-82
2021/08/16 10:07:23;;;;;;;4.78;1.83;;;19.40;99.90;;;;;;4912502;28;20043;-81
2021/08/16 10:10:04;;;;;;;4.70;1.85;;;19.60;99.90;;;;;;4971349;28;20098;-82
2021/08/16 10:13:11;;;;;;;;;;;;;;;;;;;;;
2021/08/16 10:15:47;;;;;;;8.00;2.28;;;19.40;99.90;;;;;;5024195;28;20053;-82
2021/08/16 10:18:50;;;;;;;5.40;2.15;;;19.50;99.90;;;;;;4985902;28;20053;-82
2021/08/16 10:21:32;;;;;;;6.03;1.80;;;19.60;99.90;;;;;;4971575;28;20501;-82
2021/08/16 10:24:25;;;;;;;5.95;1.67;;;19.70;99.90;;;;;;4881597;29;20088;-82
2021/08/16 10:27:50;;;;;;;;;;;;;;;;;;;;;
2021/08/16 10:30:28;;;;;;;6.97;1.95;;;19.60;99.90;;;;;;4926408;28;20047;-82
2021/08/16 10:33:45;;;;;;;6.00;1.85;;;19.50;99.90;;;;;;4861715;29;20049;-82
2021/08/16 10:36:25;;;;;;;5.35;1.40;;;19.50;99.90;;;;;;4886633;29;20063;-82
2021/08/16 10:39:05;;;;;;;6.38;2.22;;;19.60;99.90;;;;;;4863203;29;20053;-82
2021/08/16 10:41:42;;;;;;;5.18;2.00;;;19.60;99.90;;;;;;4833430;29;20514;-80
2021/08/16 10:45:04;;;;;;;;;;;;;;;;;;;;;
2021/08/16 10:47:41;;;;;;;8.65;2.45;;;19.90;99.90;;;;;;4911865;28;20047;-83
2021/08/16 10:50:36;;;;;;;5.15;1.90;;;19.90;99.90;;;;;;4888722;28;20035;-83
2021/08/16 10:53:29;;;;;;;9.27;2.20;;;19.80;99.90;;;;;;4956731;28;20357;-82
2021/08/16 10:56:20;;;;;;;6.05;2.08;;;19.90;99.90;;;;;;4973245;28;20050;-82
2021/08/16 10:59:04;;;;;;;6.85;2.40;;;19.80;99.90;;;;;;4956097;28;20042;-82
2021/08/16 11:01:36;;;;;;;7.20;2.08;;;19.80;99.90;;;;;;4981681;28;20141;-82
2021/08/16 11:04:44;;;;;;;7.60;2.05;;;19.80;99.90;;;;;;5018934;28;20038;-82
2021/08/16 11:07:24;;;;;;;6.55;2.28;;;19.80;99.90;;;;;;4980163;28;20046;-80
2021/08/16 11:10:12;;;;;;;8.23;2.20;;;19.80;99.90;;;;;;4959735;28;20051;-80
2021/08/16 11:12:42;;;;;;;9.35;2.50;;;19.70;99.90;;;;;;4984647;28;20061;-81
2021/08/16 11:15:18;;;;;;;10.07;2.72;;;19.70;99.90;;;;;;4986638;28;20073;-82
2021/08/16 11:18:34;;;;;;;6.75;2.75;;;19.70;99.90;;;;;;4957516;28;20489;-81
2021/08/16 11:21:12;;;;;;;7.47;2.63;;;19.70;99.90;;;;;;4966521;28;20144;-80
2021/08/16 11:24:09;;;;;;;9.50;2.55;;;19.70;99.90;;;;;;4868718;29;20097;-81
2021/08/16 11:27:31;;;;;;;;;;;;;;;;;;;;;
2021/08/16 11:30:26;;;;;;;6.35;2.22;;;19.60;99.90;;;;;;4755138;29;20062;-83
2021/08/16 11:33:45;;;;;;;10.43;2.90;;;19.50;99.90;;;;;;4776556;29;20077;-82
2021/08/16 11:36:57;;;;;;;10.90;3.20;;;19.50;99.90;;;;;;4735129;29;20043;-83
2021/08/16 11:40:14;;;;;;;;;;;;;;;;;;;;;
2021/08/16 11:43:25;;;;;;;;;;;;;;;;;;;;;
2021/08/16 11:46:13;;;;;;;;;;;;;;;;;;;;;
2021/08/16 11:49:13;;;;;;;;;;;;;;;;;;;;;
2021/08/16 11:52:09;;;;;;;9.48;3.10;;;19.70;99.90;;;;;;5088052;27;20129;-83
2021/08/16 11:54:58;;;;;;;8.00;2.63;;;19.60;99.90;;;;;;4952005;28;20095;-80
2021/08/16 11:57:29;;;;;;;7.28;2.70;;;19.60;99.90;;;;;;4952353;28;20142;-82
2021/08/16 12:00:03;;;;;;;9.68;3.33;;;19.60;99.90;;;;;;4967377;28;20074;-81
2021/08/16 12:02:57;;;;;;;8.18;2.78;;;19.60;99.90;;;;;;4880377;29;20069;-83
2021/08/16 12:05:48;;;;;;;8.10;3.15;;;19.80;99.90;;;;;;4883873;29;20047;-83
2021/08/16 12:08:25;;;;;;;8.45;3.15;;;19.70;99.90;;;;;;4887305;29;20538;-84
2021/08/16 12:11:00;;;;;;;7.22;2.90;;;19.80;99.90;;;;;;4887809;29;20139;-83
2021/08/16 12:13:30;;;;;;;10.90;2.90;;;19.80;99.90;;;;;;4929956;28;20553;-84
2021/08/16 12:16:15;;;;;;;;;;;;;;;;;;;;;
2021/08/16 12:18:55;;;;;;;8.15;2.80;;;19.90;99.90;;;;;;5001234;28;20049;-83
2021/08/16 12:21:45;;;;;;;9.68;3.42;;;20.00;99.90;;;;;;5038601;28;20045;-83
2021/08/16 12:24:36;;;;;;;8.43;3.13;;;19.90;99.90;;;;;;5030197;28;20056;-84
2021/08/16 12:27:11;;;;;;;8.68;3.55;;;19.90;99.90;;;;;;5040951;28;20049;-83
2021/08/16 12:29:53;;;;;;;10.40;4.10;;;19.90;99.90;;;;;;5080455;28;20131;-83
2021/08/16 12:32:31;;;;;;;10.60;3.60;;;19.80;99.90;;;;;;5048466;28;20086;-83
2021/08/16 12:35:22;;;;;;;8.15;3.13;;;19.70;99.90;;;;;;5062169;28;20036;-83
2021/08/16 12:38:21;;;;;;;11.15;3.33;;;19.70;99.90;;;;;;5040650;28;20135;-83
2021/08/16 12:41:06;;;;;;;8.32;3.55;;;19.90;99.90;;;;;;5075027;28;20048;-82
2021/08/16 12:43:40;;;;;;;10.70;3.90;;;19.90;99.90;;;;;;5045834;28;20075;-79
2021/08/16 12:46:33;;;;;;;8.45;3.78;;;19.90;99.90;;;;;;5021192;28;20041;-83
2021/08/16 12:49:21;;;;;;;10.30;3.58;;;19.80;99.90;;;;;;5066831;28;20502;-84
2021/08/16 12:51:48;;;;;;;11.20;3.88;;;19.70;99.90;;;;;;5068110;28;20051;-83
2021/08/16 12:54:16;;;;;;;9.23;4.20;;;19.50;99.90;;;;;;5041665;28;20067;-83
2021/08/16 12:56:45;;;;;;;12.32;4.25;;;19.40;99.90;;;;;;5046365;28;20131;-81
2021/08/16 12:59:11;;;;;;;9.90;4.20;;;19.20;99.90;;;;;;5046146;28;20119;-83
2021/08/16 13:01:41;;;;;;;9.95;4.57;;;19.10;99.90;;;;;;5049119;28;20048;-83
2021/08/16 13:04:17;;;;;;;12.18;5.40;;;18.90;99.90;;;;;;5046127;28;20053;-82
2021/08/16 13:06:55;;;;;;;14.90;4.83;;;18.80;99.90;;;;;;5071325;28;20051;-82
2021/08/16 13:09:27;;;;;;;13.38;5.22;;;18.70;99.90;;;;;;5044254;28;20044;-83
2021/08/16 13:11:54;;;;;;;12.57;5.78;;;18.70;99.90;;;;;;5048466;28;20041;-80
2021/08/16 13:14:44;;;;;;;8.70;6.05;;;18.80;99.90;;;;;;5032539;28;20048;-81
2021/08/16 13:17:21;;;;;;;11.68;6.68;;;18.80;99.90;;;;;;5039310;28;20057;-81
2021/08/16 13:20:32;;;;;;;15.13;6.57;;;18.80;99.90;;;;;;5014307;28;20198;-83
2021/08/16 13:23:03;;;;;;;13.07;7.18;;;18.90;99.90;;;;;;4944145;28;20092;-83
2021/08/16 13:25:30;;;;;;;11.80;6.50;;;18.90;99.90;;;;;;4969989;28;20066;-82
2021/08/16 13:28:01;;;;;;;13.75;6.70;;;19.00;99.90;;;;;;5003862;28;20060;-82
2021/08/16 13:30:41;;;;;;;;;;;;;;;;;;;;;
2021/08/16 13:33:16;;;;;;;13.70;7.75;;;19.20;99.90;;;;;;4990596;28;20073;-82
2021/08/16 13:35:46;;;;;;;13.18;6.97;;;19.30;99.90;;;;;;4982464;28;20039;-83
2021/08/16 13:38:13;;;;;;;12.82;6.95;;;19.30;99.90;;;;;;5034655;28;20138;-82